Time;durP1;ratioP1;P1;durP2;ratioP2;P2;SDS_P1;SDS_P2;PMS_P1;PMS_P2;Temp;Humidity;BMP_temperature;BMP_pressure;BME280_temperature;BME280_humidity;BME280_pressure;Samples;Min_cycle;Max_cycle;Signal;HPM_P1;HPM_P2
2021/09/20 00:00:49;;;;;;;3.43;2.17;;;18.50;99.90;;;;;;5046264;28;20519;-24
2021/09/20 00:03:20;;;;;;;2.53;2.20;;;18.50;99.90;;;;;;5045306;28;20449;-25
2021/09/20 00:05:52;;;;;;;5.13;1.90;;;18.40;99.90;;;;;;5044778;28;20492;-25
2021/09/20 00:08:23;;;;;;;2.53;2.10;;;18.50;99.90;;;;;;5046206;28;20449;-25
2021/09/20 00:10:54;;;;;;;5.50;1.90;;;18.60;99.90;;;;;;5045592;28;20453;-25
2021/09/20 00:13:25;;;;;;;4.10;1.97;;;18.50;99.90;;;;;;5045653;28;20445;-26
2021/09/20 00:15:58;;;;;;;3.83;1.50;;;18.40;99.90;;;;;;5045520;28;20611;-24
2021/09/20 00:18:29;;;;;;;2.57;1.90;;;18.30;99.90;;;;;;5045886;28;20457;-24
2021/09/20 00:21:00;;;;;;;5.30;2.00;;;18.30;99.90;;;;;;5045307;28;20479;-24
2021/09/20 00:23:31;;;;;;;1.80;1.50;;;18.40;99.90;;;;;;5045360;28;20522;-25
2021/09/20 00:26:04;;;;;;;2.80;1.67;;;18.40;99.90;;;;;;5044334;28;20499;-25
2021/09/20 00:28:35;;;;;;;2.53;2.33;;;18.40;99.90;;;;;;5045440;28;20453;-24
2021/09/20 00:31:08;;;;;;;3.60;2.57;;;18.50;99.90;;;;;;5044388;28;20445;-24
2021/09/20 00:33:39;;;;;;;4.10;1.70;;;18.40;99.90;;;;;;5045323;28;20441;-24
2021/09/20 00:36:10;;;;;;;3.53;2.03;;;18.40;99.90;;;;;;5044684;28;20454;-24
2021/09/20 00:38:41;;;;;;;3.00;1.50;;;18.30;99.90;;;;;;5045417;28;20545;-24
2021/09/20 00:41:12;;;;;;;2.50;1.57;;;18.40;99.90;;;;;;5044581;28;20453;-24
2021/09/20 00:43:43;;;;;;;2.83;1.30;;;18.30;99.90;;;;;;5045541;28;20468;-24
2021/09/20 00:46:17;;;;;;;2.37;1.73;;;18.20;99.90;;;;;;5043442;28;20545;-24
2021/09/20 00:48:48;;;;;;;2.10;1.70;;;18.20;99.90;;;;;;5044790;28;20466;-24
2021/09/20 00:51:19;;;;;;;4.20;2.10;;;18.20;99.90;;;;;;5044646;28;20523;-24
2021/09/20 00:53:50;;;;;;;3.33;1.40;;;18.20;99.90;;;;;;5045008;28;20529;-24
2021/09/20 00:56:22;;;;;;;2.80;1.60;;;18.00;99.90;;;;;;5044602;28;20439;-24
2021/09/20 00:58:53;;;;;;;2.60;1.40;;;17.80;99.90;;;;;;5044803;28;20500;-24
2021/09/20 01:01:26;;;;;;;4.03;1.60;;;17.70;99.90;;;;;;5039425;28;20472;-24
2021/09/20 01:03:57;;;;;;;2.00;1.33;;;17.70;99.90;;;;;;5041803;28;20567;-24
2021/09/20 01:06:28;;;;;;;3.10;1.63;;;17.70;99.90;;;;;;5004668;28;20418;-25
2021/09/20 01:08:59;;;;;;;2.13;1.87;;;17.60;99.90;;;;;;5005014;28;20577;-24
2021/09/20 01:11:30;;;;;;;2.67;1.63;;;17.60;99.90;;;;;;5004973;28;20447;-24
2021/09/20 01:14:01;;;;;;;1.70;1.60;;;17.60;99.90;;;;;;5005372;28;20444;-24
2021/09/20 01:16:34;;;;;;;2.90;2.20;;;17.60;99.90;;;;;;5003826;28;20991;-24
2021/09/20 01:19:05;;;;;;;3.03;2.23;;;17.60;99.90;;;;;;5005209;28;20451;-24
2021/09/20 01:21:36;;;;;;;2.00;1.80;;;17.50;99.90;;;;;;5004367;28;20467;-24
2021/09/20 01:24:09;;;;;;;3.80;2.30;;;17.40;99.90;;;;;;5004751;28;20437;-25
2021/09/20 01:26:40;;;;;;;4.00;2.17;;;17.40;99.90;;;;;;5000819;28;20517;-25
2021/09/20 01:29:11;;;;;;;3.80;2.10;;;17.40;99.90;;;;;;5005292;28;20462;-24
2021/09/20 01:31:42;;;;;;;4.70;3.50;;;17.30;99.90;;;;;;5003058;28;20481;-25
2021/09/20 01:34:13;;;;;;;3.50;2.87;;;17.20;99.90;;;;;;5004727;28;20478;-25
2021/09/20 01:36:44;;;;;;;2.93;2.73;;;17.20;99.90;;;;;;5004016;28;20479;-24
2021/09/20 01:39:23;;;;;;;4.40;2.93;;;17.20;99.90;;;;;;5004332;28;20492;-24
2021/09/20 01:41:55;;;;;;;3.83;2.77;;;17.30;99.90;;;;;;5003346;28;20451;-24
2021/09/20 01:44:26;;;;;;;3.70;2.80;;;17.40;99.90;;;;;;5004972;28;20491;-24
2021/09/20 01:46:58;;;;;;;3.67;2.23;;;17.30;99.90;;;;;;5003157;28;20543;-24
2021/09/20 01:49:29;;;;;;;3.90;2.30;;;17.40;99.90;;;;;;5003775;28;20489;-24
2021/09/20 01:52:01;;;;;;;7.00;2.97;;;17.30;99.90;;;;;;4988906;28;20455;-24
2021/09/20 01:54:34;;;;;;;2.30;1.90;;;17.30;99.90;;;;;;4993506;28;20471;-24
2021/09/20 01:57:05;;;;;;;3.67;2.10;;;17.30;99.90;;;;;;5003475;28;20487;-24
2021/09/20 01:59:36;;;;;;;3.80;2.33;;;17.20;99.90;;;;;;5004417;28;20443;-25
2021/09/20 02:02:07;;;;;;;10.00;2.57;;;17.10;99.90;;;;;;5002275;28;20513;-25
2021/09/20 02:04:39;;;;;;;2.67;2.40;;;17.00;99.90;;;;;;5008083;28;20555;-25
2021/09/20 02:07:10;;;;;;;2.93;2.50;;;17.00;99.90;;;;;;5026490;28;20576;-24
2021/09/20 02:09:42;;;;;;;3.93;2.67;;;17.00;99.90;;;;;;5042098;28;20480;-25
2021/09/20 02:12:13;;;;;;;4.73;2.40;;;16.90;99.90;;;;;;5039392;28;21220;-24
2021/09/20 02:14:44;;;;;;;4.63;3.00;;;17.00;99.90;;;;;;5039980;28;20527;-24
2021/09/20 02:17:15;;;;;;;4.40;2.30;;;16.90;99.90;;;;;;5038739;28;20453;-24
2021/09/20 02:19:46;;;;;;;3.70;2.30;;;16.80;99.90;;;;;;5043421;28;20442;-24
2021/09/20 02:22:17;;;;;;;3.93;2.90;;;16.80;99.90;;;;;;5042696;28;20449;-25
2021/09/20 02:24:50;;;;;;;2.70;2.40;;;16.80;99.90;;;;;;5041418;28;20776;-24
2021/09/20 02:27:22;;;;;;;5.90;3.60;;;16.80;99.90;;;;;;5042016;28;20445;-25
2021/09/20 02:29:53;;;;;;;3.87;2.67;;;16.70;99.90;;;;;;5043240;28;20874;-24
2021/09/20 02:32:24;;;;;;;5.80;2.87;;;16.80;99.90;;;;;;5041742;28;20454;-25
2021/09/20 02:34:55;;;;;;;4.27;3.20;;;16.90;99.90;;;;;;5042932;28;20492;-24
2021/09/20 02:37:26;;;;;;;5.20;2.53;;;16.80;99.90;;;;;;5041869;28;20555;-24
2021/09/20 02:39:58;;;;;;;3.97;2.90;;;16.80;99.90;;;;;;5039270;28;20527;-24
2021/09/20 02:42:29;;;;;;;3.60;2.30;;;16.80;99.90;;;;;;5039873;28;20455;-24
2021/09/20 02:45:00;;;;;;;5.20;2.83;;;16.80;99.90;;;;;;5042909;28;20475;-24
2021/09/20 02:47:32;;;;;;;3.10;2.30;;;16.80;99.90;;;;;;5041462;28;20856;-25
2021/09/20 02:50:03;;;;;;;7.10;2.70;;;16.70;99.90;;;;;;5042555;28;20518;-24
2021/09/20 02:52:34;;;;;;;5.30;3.60;;;16.60;99.90;;;;;;5042075;28;20460;-24
2021/09/20 02:55:09;;;;;;;5.07;3.10;;;16.50;99.90;;;;;;5042836;28;20481;-24
2021/09/20 02:57:40;;;;;;;3.40;2.83;;;16.30;99.90;;;;;;5037669;28;20464;-25
2021/09/20 03:00:13;;;;;;;6.70;2.97;;;16.20;99.90;;;;;;5038539;28;20448;-24
2021/09/20 03:02:44;;;;;;;3.53;3.10;;;16.10;99.90;;;;;;5037417;28;21010;-24
2021/09/20 03:05:16;;;;;;;8.10;4.93;;;16.10;99.90;;;;;;5037496;28;20485;-24
2021/09/20 03:08:07;;;;;;;4.23;3.83;;;16.10;99.90;;;;;;5032575;28;20468;-24
2021/09/20 03:10:39;;;;;;;5.87;4.10;;;16.10;99.90;;;;;;5041633;28;20932;-24
2021/09/20 03:13:11;;;;;;;6.10;3.53;;;16.10;99.90;;;;;;5042009;28;20446;-24
2021/09/20 03:15:42;;;;;;;5.47;3.47;;;16.10;99.90;;;;;;5042073;28;20473;-24
2021/09/20 03:18:13;;;;;;;3.50;2.57;;;16.20;99.90;;;;;;5041430;28;20548;-24
2021/09/20 03:20:44;;;;;;;4.53;2.83;;;16.10;99.90;;;;;;5041924;28;20485;-24
2021/09/20 03:23:15;;;;;;;6.23;3.70;;;16.20;99.90;;;;;;5043212;28;20499;-24
2021/09/20 03:25:48;;;;;;;5.97;3.07;;;16.30;99.90;;;;;;5045820;28;20449;-24
2021/09/20 03:28:19;;;;;;;4.87;2.87;;;16.20;99.90;;;;;;5044250;28;20545;-24
2021/09/20 03:30:50;;;;;;;3.80;3.10;;;16.20;99.90;;;;;;5042158;28;20583;-25
2021/09/20 03:33:21;;;;;;;5.20;3.10;;;16.20;99.90;;;;;;5043466;28;20525;-24
2021/09/20 03:35:52;;;;;;;3.17;2.87;;;16.20;99.90;;;;;;5042526;28;20558;-25
2021/09/20 03:38:23;;;;;;;3.53;2.60;;;16.10;99.90;;;;;;5045230;28;20582;-24
2021/09/20 03:40:55;;;;;;;3.40;3.10;;;16.00;99.90;;;;;;5045760;28;20457;-25
2021/09/20 03:43:26;;;;;;;4.53;3.13;;;15.90;99.90;;;;;;5045209;28;20479;-24
2021/09/20 03:45:57;;;;;;;5.40;2.77;;;15.80;99.90;;;;;;5045101;28;20452;-24
2021/09/20 03:48:28;;;;;;;3.30;2.73;;;15.80;99.90;;;;;;5045351;28;20540;-24
2021/09/20 03:51:00;;;;;;;6.13;2.73;;;15.70;99.90;;;;;;5045190;28;20457;-24
2021/09/20 03:53:31;;;;;;;3.23;2.93;;;15.60;99.90;;;;;;5044736;28;20460;-24
2021/09/20 03:56:04;;;;;;;3.90;2.83;;;15.70;99.90;;;;;;5044680;28;20484;-24
2021/09/20 03:58:36;;;;;;;7.90;3.67;;;15.70;99.90;;;;;;5035453;28;20450;-24
2021/09/20 04:01:07;;;;;;;3.40;2.57;;;15.70;99.90;;;;;;5043806;28;20446;-24
2021/09/20 04:03:39;;;;;;;5.20;3.30;;;15.70;99.90;;;;;;5045341;28;20449;-25
2021/09/20 04:06:10;;;;;;;3.63;2.80;;;15.70;99.90;;;;;;5042805;28;20538;-24
2021/09/20 04:08:41;;;;;;;5.43;3.23;;;15.80;99.90;;;;;;5043356;28;20453;-25
2021/09/20 04:11:14;;;;;;;3.33;2.30;;;15.90;99.90;;;;;;5041539;28;20450;-24
2021/09/20 04:13:45;;;;;;;2.40;2.20;;;15.90;99.90;;;;;;5045165;28;20441;-24
2021/09/20 04:16:16;;;;;;;6.67;2.80;;;15.80;99.90;;;;;;5034139;28;20488;-24
2021/09/20 04:18:47;;;;;;;2.83;2.53;;;15.80;99.90;;;;;;5044967;28;20539;-25
2021/09/20 04:21:18;;;;;;;3.33;2.17;;;15.70;99.90;;;;;;5043248;28;20485;-25
2021/09/20 04:23:49;;;;;;;3.73;1.97;;;15.60;99.90;;;;;;5042324;28;20457;-24
2021/09/20 04:26:21;;;;;;;4.00;2.60;;;15.50;99.90;;;;;;5044102;28;20688;-25
2021/09/20 04:28:52;;;;;;;4.40;2.57;;;15.50;99.90;;;;;;5042755;28;20518;-26
2021/09/20 04:31:23;;;;;;;2.90;2.10;;;15.40;99.90;;;;;;5043770;28;20450;-24
2021/09/20 04:33:54;;;;;;;3.07;2.13;;;15.30;99.90;;;;;;5035916;28;20457;-22
2021/09/20 04:36:25;;;;;;;4.87;2.20;;;15.20;99.90;;;;;;5044200;28;20485;-25
2021/09/20 04:38:56;;;;;;;7.57;3.13;;;15.10;99.90;;;;;;5044402;28;20457;-25
2021/09/20 04:41:29;;;;;;;4.63;2.13;;;15.10;99.90;;;;;;5043905;28;20445;-24
2021/09/20 04:44:00;;;;;;;2.63;2.03;;;15.10;99.90;;;;;;5034335;28;20458;-24
2021/09/20 04:46:31;;;;;;;2.00;1.90;;;15.10;99.90;;;;;;5043170;28;20445;-24
2021/09/20 04:49:02;;;;;;;2.60;2.40;;;15.00;99.90;;;;;;5044441;28;20504;-24
2021/09/20 04:51:33;;;;;;;3.43;2.47;;;15.00;99.90;;;;;;5044017;28;20962;-24
2021/09/20 04:54:04;;;;;;;3.63;2.53;;;14.80;99.90;;;;;;5028726;28;20457;-24
2021/09/20 04:56:36;;;;;;;4.80;2.20;;;14.80;99.90;;;;;;5041846;28;20997;-25
2021/09/20 04:59:07;;;;;;;3.90;2.80;;;14.70;99.90;;;;;;5042224;28;20537;-24
2021/09/20 05:01:38;;;;;;;5.70;2.40;;;14.60;99.90;;;;;;5042521;28;20485;-24
2021/09/20 05:04:11;;;;;;;5.30;2.20;;;14.50;99.90;;;;;;5043578;28;20472;-24
2021/09/20 05:06:42;;;;;;;8.63;3.43;;;14.50;99.90;;;;;;5039714;28;20453;-24
2021/09/20 05:09:13;;;;;;;3.30;2.50;;;14.40;99.90;;;;;;5042410;28;20464;-24
2021/09/20 05:11:45;;;;;;;4.70;2.67;;;14.40;99.90;;;;;;5043725;28;20840;-24
2021/09/20 05:14:16;;;;;;;3.90;2.30;;;14.40;99.90;;;;;;5044500;28;20473;-24
2021/09/20 05:16:47;;;;;;;4.30;2.47;;;14.30;99.90;;;;;;5039926;28;20504;-24
2021/09/20 05:19:18;;;;;;;4.13;2.80;;;14.30;99.90;;;;;;5042267;28;20449;-24
2021/09/20 05:21:49;;;;;;;4.83;2.53;;;14.20;99.90;;;;;;5042502;28;20503;-24
2021/09/20 05:24:20;;;;;;;4.57;2.70;;;14.10;99.90;;;;;;5042347;28;20449;-24
2021/09/20 05:26:53;;;;;;;3.67;2.87;;;14.10;99.90;;;;;;5042278;28;20529;-25
2021/09/20 05:29:24;;;;;;;3.07;2.63;;;14.00;99.90;;;;;;5043868;28;20480;-24
2021/09/20 05:31:55;;;;;;;4.40;2.80;;;13.90;99.90;;;;;;5028754;28;20449;-24
2021/09/20 05:34:29;;;;;;;3.23;2.67;;;13.90;99.90;;;;;;5043144;28;20453;-24
2021/09/20 05:37:00;;;;;;;2.50;2.30;;;13.90;99.90;;;;;;5041656;28;21000;-25
2021/09/20 05:39:33;;;;;;;4.10;2.50;;;13.80;99.90;;;;;;5039115;28;20450;-24
2021/09/20 05:42:05;;;;;;;5.30;2.70;;;13.80;99.90;;;;;;5041676;28;20625;-25
2021/09/20 05:44:36;;;;;;;4.57;3.03;;;13.80;99.90;;;;;;5043006;28;20561;-24
2021/09/20 05:47:07;;;;;;;2.73;2.53;;;13.70;99.90;;;;;;5041963;28;20523;-24
2021/09/20 05:49:38;;;;;;;3.43;2.83;;;13.70;99.90;;;;;;5042091;28;20979;-24
2021/09/20 05:52:09;;;;;;;3.20;2.90;;;13.60;99.90;;;;;;5043270;28;20563;-24
2021/09/20 05:54:40;;;;;;;3.80;3.20;;;13.60;99.90;;;;;;5043044;28;20484;-23
2021/09/20 05:57:13;;;;;;;3.30;2.97;;;13.50;99.90;;;;;;5041356;28;20627;-23
2021/09/20 05:59:44;;;;;;;4.77;3.20;;;13.40;99.90;;;;;;5043690;28;20453;-23
2021/09/20 06:02:15;;;;;;;3.20;2.90;;;13.40;99.90;;;;;;5040492;28;20453;-23
2021/09/20 06:04:48;;;;;;;4.13;2.93;;;13.40;99.90;;;;;;5041329;28;20619;-23
2021/09/20 06:07:19;;;;;;;3.60;3.00;;;13.40;99.90;;;;;;5042794;28;20805;-23
2021/09/20 06:09:49;;;;;;;4.47;3.27;;;13.30;99.90;;;;;;5042887;28;20480;-23
2021/09/20 06:12:22;;;;;;;4.50;3.00;;;13.30;99.90;;;;;;5040017;28;20532;-24
2021/09/20 06:14:53;;;;;;;5.83;3.30;;;13.30;99.90;;;;;;5042902;28;20451;-24
2021/09/20 06:17:24;;;;;;;4.13;3.53;;;13.20;99.90;;;;;;5041769;28;20535;-24
2021/09/20 06:19:55;;;;;;;4.33;3.53;;;13.20;99.90;;;;;;5027794;28;20453;-24
2021/09/20 06:22:26;;;;;;;5.43;3.37;;;13.20;99.90;;;;;;5041338;28;20468;-24
2021/09/20 06:24:59;;;;;;;4.50;3.30;;;13.20;99.90;;;;;;5042646;28;20477;-24
2021/09/20 06:27:31;;;;;;;4.63;3.80;;;13.10;99.90;;;;;;5041421;28;20514;-24
2021/09/20 06:30:03;;;;;;;6.77;3.40;;;13.10;99.90;;;;;;5043478;28;20489;-24
2021/09/20 06:32:34;;;;;;;4.90;3.47;;;13.10;99.90;;;;;;5041166;28;20478;-24
2021/09/20 06:35:06;;;;;;;6.07;3.53;;;13.10;99.90;;;;;;5042182;28;20539;-24
2021/09/20 06:37:37;;;;;;;5.87;4.10;;;13.00;99.90;;;;;;5042494;28;20522;-24
2021/09/20 06:40:10;;;;;;;7.43;5.50;;;12.90;99.90;;;;;;5042095;28;21120;-24
2021/09/20 06:42:44;;;;;;;6.33;3.77;;;12.90;99.90;;;;;;5042703;28;20469;-24
2021/09/20 06:45:15;;;;;;;4.40;3.30;;;12.90;99.90;;;;;;5042645;28;20622;-24
2021/09/20 06:47:46;;;;;;;4.27;3.53;;;12.90;99.90;;;;;;5041351;28;20488;-24
2021/09/20 06:50:17;;;;;;;5.80;3.90;;;12.90;99.90;;;;;;5042436;28;21123;-24
2021/09/20 06:52:48;;;;;;;5.10;4.57;;;12.80;99.90;;;;;;5041690;28;20449;-24
2021/09/20 06:55:19;;;;;;;6.70;4.17;;;12.80;99.90;;;;;;5042431;28;20480;-24
2021/09/20 06:57:53;;;;;;;5.03;3.90;;;12.80;99.90;;;;;;5042992;28;20504;-24
2021/09/20 07:00:24;;;;;;;5.57;4.23;;;12.70;99.90;;;;;;5046178;28;20465;-26
2021/09/20 07:02:55;;;;;;;4.40;3.60;;;12.70;99.90;;;;;;5041295;28;20480;-24
2021/09/20 07:05:27;;;;;;;6.00;3.73;;;12.80;99.90;;;;;;5046438;28;20500;-24
2021/09/20 07:08:00;;;;;;;6.57;3.80;;;12.70;99.90;;;;;;5037431;28;20486;-24
2021/09/20 07:10:31;;;;;;;9.90;4.70;;;12.60;99.90;;;;;;5046243;28;20445;-24
2021/09/20 07:13:08;;;;;;;6.53;3.80;;;12.70;99.90;;;;;;5046265;28;20547;-24
2021/09/20 07:15:39;;;;;;;4.97;3.57;;;12.70;99.90;;;;;;5046153;28;20476;-24
2021/09/20 07:18:11;;;;;;;5.07;3.70;;;12.70;99.90;;;;;;5045117;28;20509;-24
2021/09/20 07:20:44;;;;;;;5.53;3.57;;;12.60;99.90;;;;;;5046189;28;20460;-23
2021/09/20 07:23:15;;;;;;;5.93;3.70;;;12.70;99.90;;;;;;5046223;28;20452;-24
2021/09/20 07:25:46;;;;;;;7.10;3.73;;;12.70;99.90;;;;;;5045028;28;20484;-24
2021/09/20 07:28:19;;;;;;;4.00;3.70;;;12.70;99.90;;;;;;5044201;28;20445;-24
2021/09/20 07:30:52;;;;;;;4.90;3.87;;;12.80;99.90;;;;;;5034835;28;20454;-24
2021/09/20 07:33:24;;;;;;;5.23;3.60;;;12.80;99.90;;;;;;5044970;28;20505;-24
2021/09/20 07:35:55;;;;;;;5.57;3.90;;;12.90;99.90;;;;;;5045603;28;20477;-24
2021/09/20 07:38:26;;;;;;;4.30;3.30;;;12.90;99.90;;;;;;5045867;28;20558;-23
2021/09/20 07:40:57;;;;;;;6.27;3.90;;;12.90;99.90;;;;;;5045671;28;20449;-24
2021/09/20 07:43:34;;;;;;;5.93;3.63;;;13.00;99.90;;;;;;5045700;28;20594;-24
2021/09/20 07:46:05;;;;;;;5.27;3.90;;;13.00;99.90;;;;;;5039989;28;20457;-24
2021/09/20 07:48:36;;;;;;;5.77;4.67;;;13.00;99.90;;;;;;5045841;28;20942;-23
2021/09/20 07:51:07;;;;;;;5.87;4.13;;;13.00;99.90;;;;;;5044540;28;20457;-24
2021/09/20 07:53:38;;;;;;;5.30;4.40;;;12.90;99.90;;;;;;5045203;28;20541;-24
2021/09/20 07:56:09;;;;;;;4.23;3.63;;;13.00;99.90;;;;;;5043838;28;20461;-24
2021/09/20 07:58:42;;;;;;;6.87;3.77;;;12.90;99.90;;;;;;5044844;28;20519;-24
2021/09/20 08:01:13;;;;;;;5.43;4.00;;;12.90;99.90;;;;;;5041315;28;20445;-24
2021/09/20 08:03:44;;;;;;;6.80;4.10;;;12.80;99.90;;;;;;5043132;28;20449;-24
2021/09/20 08:06:17;;;;;;;5.23;3.63;;;12.80;99.90;;;;;;5039790;28;21046;-24
2021/09/20 08:08:48;;;;;;;6.13;3.80;;;12.70;99.90;;;;;;5044902;28;20839;-24
2021/09/20 08:11:19;;;;;;;5.37;3.57;;;12.70;99.90;;;;;;5045034;28;20445;-24
2021/09/20 08:13:51;;;;;;;6.47;4.17;;;12.70;99.90;;;;;;5045335;28;20460;-23
2021/09/20 08:16:22;;;;;;;5.77;4.10;;;12.60;99.90;;;;;;5043956;28;20596;-23
2021/09/20 08:18:53;;;;;;;6.57;3.90;;;12.60;99.90;;;;;;5044321;28;20489;-24
2021/09/20 08:21:24;;;;;;;4.50;4.10;;;12.50;99.90;;;;;;5044079;28;20556;-23
2021/09/20 08:23:55;;;;;;;5.13;4.30;;;12.40;99.90;;;;;;5044367;28;20882;-23
2021/09/20 08:26:26;;;;;;;5.20;4.07;;;12.40;99.90;;;;;;5045000;28;20496;-23
2021/09/20 08:28:59;;;;;;;5.17;3.83;;;12.30;99.90;;;;;;5042341;28;20477;-23
2021/09/20 08:31:30;;;;;;;6.47;4.60;;;12.30;99.90;;;;;;5043762;28;20445;-23
2021/09/20 08:34:01;;;;;;;5.50;3.90;;;12.30;99.90;;;;;;5044019;28;20453;-24
2021/09/20 08:36:32;;;;;;;6.83;4.17;;;12.20;99.90;;;;;;5044670;28;20453;-23
2021/09/20 08:39:03;;;;;;;8.27;4.87;;;12.20;99.90;;;;;;5045209;28;20857;-24
2021/09/20 08:41:34;;;;;;;5.07;4.67;;;12.20;99.90;;;;;;5044357;28;20445;-24
2021/09/20 08:44:09;;;;;;;5.20;3.97;;;12.10;99.90;;;;;;5044484;28;20487;-24
2021/09/20 08:46:41;;;;;;;6.60;3.50;;;12.10;99.90;;;;;;5043728;28;20459;-24
2021/09/20 08:49:12;;;;;;;7.20;3.80;;;12.10;99.90;;;;;;5044793;28;20586;-23
2021/09/20 08:51:43;;;;;;;4.57;4.17;;;12.10;99.90;;;;;;5044627;28;20496;-23
2021/09/20 08:54:14;;;;;;;5.60;3.67;;;12.00;99.90;;;;;;5044161;28;20458;-24
2021/09/20 08:56:49;;;;;;;3.90;3.50;;;11.90;99.90;;;;;;5036018;28;20520;-25
2021/09/20 08:59:22;;;;;;;4.87;3.60;;;11.90;99.90;;;;;;5044525;28;20473;-24
2021/09/20 09:01:55;;;;;;;4.80;3.63;;;11.90;99.90;;;;;;5043631;28;20485;-24
2021/09/20 09:04:30;;;;;;;7.47;4.27;;;11.90;99.90;;;;;;5043643;28;20583;-24
2021/09/20 09:07:21;;;;;;;6.20;4.00;;;11.80;99.90;;;;;;5041286;28;20457;-23
2021/09/20 09:09:53;;;;;;;3.90;3.50;;;11.70;99.90;;;;;;5041970;28;20453;-24
2021/09/20 09:12:26;;;;;;;4.17;3.70;;;11.70;99.90;;;;;;5041638;28;20449;-23
2021/09/20 09:15:00;;;;;;;6.97;4.63;;;11.70;99.90;;;;;;5044173;28;20798;-24
2021/09/20 09:17:33;;;;;;;5.17;3.50;;;11.70;99.90;;;;;;5043246;28;20446;-24
2021/09/20 09:20:08;;;;;;;6.83;3.90;;;11.60;99.90;;;;;;5043632;28;20477;-24
2021/09/20 09:22:48;;;;;;;6.77;4.20;;;11.60;99.90;;;;;;5043819;28;20492;-23
2021/09/20 09:25:22;;;;;;;5.40;4.30;;;11.70;99.90;;;;;;5035346;28;20781;-24
2021/09/20 09:27:55;;;;;;;4.83;4.33;;;11.70;99.90;;;;;;5035635;28;20874;-24
2021/09/20 09:30:29;;;;;;;6.07;4.03;;;11.60;99.90;;;;;;5043740;28;20445;-24
2021/09/20 09:33:08;;;;;;;4.57;4.07;;;11.60;99.90;;;;;;5042730;28;20449;-24
2021/09/20 09:35:40;;;;;;;7.50;4.43;;;11.50;99.90;;;;;;5044308;28;20500;-24
2021/09/20 09:38:12;;;;;;;5.83;4.20;;;11.50;99.90;;;;;;5043772;28;20458;-24
2021/09/20 09:40:53;;;;;;;5.30;3.72;;;11.50;99.90;;;;;;5043529;28;20492;-24
2021/09/20 09:43:28;;;;;;;6.90;4.00;;;11.50;99.90;;;;;;5040252;28;20301;-24
2021/09/20 09:46:02;;;;;;;6.27;4.83;;;11.40;99.90;;;;;;5041397;28;20521;-24
2021/09/20 09:48:36;;;;;;;6.00;4.27;;;11.50;99.90;;;;;;5040534;28;20506;-24
2021/09/20 09:51:07;;;;;;;11.50;5.20;;;11.40;99.90;;;;;;5042313;28;20472;-24
2021/09/20 09:53:39;;;;;;;6.95;5.38;;;11.50;99.90;;;;;;5043637;28;20521;-24
2021/09/20 09:56:25;;;;;;;4.97;4.30;;;11.50;99.90;;;;;;5042175;28;20207;-24
2021/09/20 09:58:58;;;;;;;6.63;4.53;;;11.40;99.90;;;;;;5043042;28;20542;-24
2021/09/20 10:04:36;;;;;;;4.90;4.17;;;11.40;99.90;;;;;;5008685;28;20487;-24
2021/09/20 10:07:06;;;;;;;4.90;4.07;;;11.40;99.90;;;;;;5038811;28;20458;-24
2021/09/20 10:09:37;;;;;;;9.80;4.10;;;11.30;99.90;;;;;;5042701;28;20441;-24
2021/09/20 10:12:10;;;;;;;7.00;4.30;;;11.20;99.90;;;;;;5042173;28;20194;-24
2021/09/20 10:14:41;;;;;;;5.97;3.95;;;11.20;99.90;;;;;;5037774;28;20532;-24
2021/09/20 10:17:18;;;;;;;5.50;4.10;;;11.20;99.90;;;;;;5041763;28;20203;-24
2021/09/20 10:19:54;;;;;;;5.82;3.53;;;11.20;99.90;;;;;;5043296;28;20488;-24
2021/09/20 10:22:25;;;;;;;6.72;4.40;;;11.20;99.90;;;;;;5042552;28;20261;-24
2021/09/20 10:24:58;;;;;;;7.53;4.47;;;11.20;99.90;;;;;;5041357;28;20199;-24
2021/09/20 10:27:30;;;;;;;7.80;3.90;;;11.10;99.90;;;;;;5042921;28;20310;-24
2021/09/20 10:30:08;;;;;;;6.00;4.23;;;11.20;99.90;;;;;;5042971;28;20233;-24
2021/09/20 10:32:42;;;;;;;7.10;4.00;;;11.10;99.90;;;;;;5040587;28;20480;-24
2021/09/20 10:35:29;;;;;;;4.97;4.47;;;11.00;99.90;;;;;;5042697;28;20484;-24
2021/09/20 10:38:02;;;;;;;5.83;4.20;;;11.00;99.90;;;;;;5041527;28;20256;-23
2021/09/20 10:40:34;;;;;;;5.30;4.17;;;10.90;99.90;;;;;;5042690;28;20477;-24
2021/09/20 10:43:08;;;;;;;6.33;4.20;;;10.80;99.90;;;;;;5042492;28;20445;-24
2021/09/20 10:45:56;;;;;;;7.53;4.47;;;10.80;99.90;;;;;;5026881;28;20449;-23
2021/09/20 10:48:51;;;;;;;6.43;4.13;;;10.80;99.90;;;;;;5042992;28;20482;-23
2021/09/20 10:51:27;;;;;;;9.18;4.30;;;10.80;99.90;;;;;;5041532;28;20221;-23
2021/09/20 10:54:27;;;;;;;4.15;3.75;;;10.80;99.90;;;;;;5028245;28;20279;-23
2021/09/20 10:57:11;;;;;;;5.20;3.67;;;10.70;99.90;;;;;;5036189;28;20237;-24
2021/09/20 10:59:42;;;;;;;7.38;4.72;;;10.80;99.90;;;;;;5042623;28;20222;-23
2021/09/20 11:02:19;;;;;;;4.60;4.15;;;10.80;99.90;;;;;;5040572;28;20673;-24
2021/09/20 11:05:05;;;;;;;6.30;4.38;;;10.80;99.90;;;;;;5039956;28;20252;-24
2021/09/20 11:07:45;;;;;;;4.65;4.10;;;10.70;99.90;;;;;;5035527;28;20326;-25
2021/09/20 11:10:17;;;;;;;5.88;3.92;;;10.70;99.90;;;;;;5043060;28;20183;-24
2021/09/20 11:12:59;;;;;;;5.28;4.30;;;10.70;99.90;;;;;;5042235;28;20207;-24
2021/09/20 11:15:38;;;;;;;6.55;4.28;;;10.60;99.90;;;;;;5042241;28;20199;-24
2021/09/20 11:18:09;;;;;;;4.72;4.22;;;10.60;99.90;;;;;;5033229;28;20206;-24
2021/09/20 11:20:43;;;;;;;7.13;4.40;;;10.60;99.90;;;;;;5039811;28;20246;-24
2021/09/20 11:23:20;;;;;;;6.00;4.07;;;10.50;99.90;;;;;;5039058;28;20446;-24
2021/09/20 11:26:09;;;;;;;4.43;4.03;;;10.60;99.90;;;;;;5042102;28;20229;-25
2021/09/20 11:28:42;;;;;;;5.07;4.45;;;10.60;99.90;;;;;;5042343;28;20295;-23
2021/09/20 11:31:14;;;;;;;4.53;4.10;;;10.70;99.90;;;;;;5041446;28;20202;-24
2021/09/20 11:33:47;;;;;;;6.55;4.85;;;10.80;99.90;;;;;;5041898;28;20976;-23
2021/09/20 11:36:33;;;;;;;5.88;4.90;;;10.90;99.90;;;;;;5041613;28;20199;-23
2021/09/20 11:39:11;;;;;;;4.80;3.73;;;10.90;99.90;;;;;;5039599;28;20325;-23
2021/09/20 11:41:44;;;;;;;9.10;5.00;;;10.90;99.90;;;;;;5041720;28;20972;-24
2021/09/20 11:44:16;;;;;;;6.32;4.55;;;11.00;99.90;;;;;;5043312;28;20258;-23
2021/09/20 11:46:48;;;;;;;7.43;4.60;;;11.20;99.90;;;;;;5045063;28;20238;-24
2021/09/20 11:49:20;;;;;;;13.30;6.03;;;11.20;99.90;;;;;;5045044;28;20481;-24
2021/09/20 11:51:56;;;;;;;12.20;7.17;;;11.30;99.90;;;;;;5045839;28;20457;-24
2021/09/20 11:54:33;;;;;;;30.33;7.70;;;11.40;99.90;;;;;;5045330;28;20983;-23
2021/09/20 11:57:21;;;;;;;23.73;6.80;;;11.50;99.90;;;;;;5044486;28;20560;-24
2021/09/20 11:59:52;;;;;;;21.93;7.63;;;11.50;99.90;;;;;;5045647;28;20956;-23
2021/09/20 12:02:39;;;;;;;38.17;9.27;;;11.50;99.90;;;;;;5043511;28;20442;-23
2021/09/20 12:05:13;;;;;;;27.03;7.70;;;11.50;99.90;;;;;;5042706;28;20469;-24
2021/09/20 12:07:52;;;;;;;16.43;7.70;;;11.60;99.90;;;;;;5044414;28;20457;-24
2021/09/20 12:10:26;;;;;;;15.47;7.70;;;11.60;99.90;;;;;;5041841;28;20560;-24
2021/09/20 12:13:02;;;;;;;36.43;8.67;;;11.50;99.90;;;;;;5044660;28;20476;-24
2021/09/20 12:15:35;;;;;;;21.10;7.63;;;11.60;99.90;;;;;;5044734;28;20462;-23
2021/09/20 12:18:08;;;;;;;15.80;7.83;;;11.70;99.90;;;;;;5043727;28;20480;-24
2021/09/20 12:20:41;;;;;;;29.67;8.67;;;11.60;99.90;;;;;;5044807;28;20559;-23
2021/09/20 12:23:16;;;;;;;16.73;6.60;;;11.70;99.90;;;;;;5044685;28;20519;-23
2021/09/20 12:25:49;;;;;;;27.57;7.90;;;11.60;99.90;;;;;;5043924;28;20484;-23
2021/09/20 12:28:23;;;;;;;16.27;6.80;;;11.60;99.90;;;;;;5044249;28;20481;-23
2021/09/20 12:31:04;;;;;;;13.00;6.53;;;11.60;99.90;;;;;;5043128;28;20452;-23
2021/09/20 12:33:53;;;;;;;18.73;6.50;;;11.50;99.90;;;;;;5044787;28;20460;-23
2021/09/20 12:36:26;;;;;;;15.80;6.73;;;11.50;99.90;;;;;;5044450;28;20473;-23
2021/09/20 12:39:10;;;;;;;8.40;5.13;;;11.40;99.90;;;;;;5045215;28;20468;-22
2021/09/20 12:41:43;;;;;;;8.32;5.97;;;11.40;99.90;;;;;;5031105;28;20976;-23
2021/09/20 12:44:29;;;;;;;7.97;5.70;;;11.30;99.90;;;;;;5045013;28;20203;-22
2021/09/20 12:47:04;;;;;;;11.50;6.20;;;11.20;99.90;;;;;;5043818;28;20226;-23
2021/09/20 12:49:37;;;;;;;6.87;6.03;;;11.10;99.90;;;;;;5044963;28;20511;-23
2021/09/20 12:52:25;;;;;;;8.90;6.97;;;11.10;99.90;;;;;;5044626;28;20453;-22
2021/09/20 12:55:17;;;;;;;8.97;6.10;;;11.10;99.90;;;;;;5044443;28;20564;-23
2021/09/20 12:57:51;;;;;;;9.40;6.20;;;11.10;99.90;;;;;;5044507;28;20495;-22
2021/09/20 13:00:31;;;;;;;8.83;6.27;;;11.20;99.90;;;;;;5044277;28;20534;-23
2021/09/20 13:03:10;;;;;;;7.50;6.40;;;11.30;99.90;;;;;;5043929;28;20789;-23
2021/09/20 13:05:43;;;;;;;8.10;6.30;;;11.40;99.90;;;;;;5041726;28;20481;-23
2021/09/20 13:08:15;;;;;;;7.27;6.50;;;11.50;99.90;;;;;;5042593;28;20207;-23
2021/09/20 13:10:47;;;;;;;6.77;5.00;;;11.40;99.90;;;;;;5042722;28;20911;-23
2021/09/20 13:13:31;;;;;;;5.63;4.83;;;11.50;99.90;;;;;;5044649;28;20453;-23
2021/09/20 13:16:02;;;;;;;6.63;5.90;;;11.50;99.90;;;;;;5042984;28;20453;-23
2021/09/20 13:18:33;;;;;;;6.03;5.33;;;11.70;99.90;;;;;;5044381;28;20476;-23